< < Back
Terminal Aerodrome Forecast


Current Version              Previous Versions:   1  2  3  4  5  6  7  8  9  

Terminal Aerodrome Forecast

049
FTUS44 KHUN 111720
TAFHSV
TAF
KHSV 111720Z 1118/1218 09006KT P6SM SKC
     FM120200 VRB03KT P6SM BKN120
     FM121600 32011KT P6SM SCT035=

Latest METAR

614
SAUS80 KWBC 121600 RRB
MTRHSV
METAR KHSV 121553Z 00000KT 10SM CLR 09/M02 A3015 RMK AO2 SLP211
T00941017


USA.gov is the U.S. government's official web portal to all federal, state and local government web resources and services.